^^
Marion, Virginia Banner
 

Adwolf, VA. Station Historical Data
[ Providing Data Since 6/07/2007 ]
Station Historical Data
 
Daily Summary for May 25, 2017 Units:  Both    English   Metric
« Previous Day
Next Day »
Daily Weekly Monthly Yearly Custom
  Current: High: Low: Average:
Temperature: 55.2 °F /  12.9 °C 58.5 °F /  14.7 °C 52.4 °F /  11.3 °C 55.2 °F /  12.9 °C
Dew Point: 54.0 °F /  12.2 °C 57.2 °F /  14 °C 50.2 °F /  10.1 °C 52.9 °F /  11.6 °C
Humidity: 96% 97% 82% 92%
Wind Speed: 9.2mph /  14.8km/h 16.1mph /  25.9km/h - 6mph /  9.7km/h
Wind Gust: 9.2mph /  14.8km/h 16.1mph /  25.9km/h - -
WindSW - - SW
Pressure: 29.81 in /  1009.4 hPa 29.81 in /  1009.4 hPa 29.60 in /  1002.3 hPa -
Precipitation: 0.35 in /  8.89 mm      
Historical Graphs
 
 
Tabular Data for May 25, 2017
Time Temperature Dew Point Pressure Wind Wind Speed Wind Gust Humidity Rainfall Rate (Hourly) solar Conditions
00:03 58.5 °F /  14.7 °C 57.0 °F /  13.9 °C 29.61in /  1002.6hPa Calm     95% 0.00in /  0mm WeatherDisplay:10.37 W/m2 -DZ
00:08 58.4 °F /  14.7 °C 57.2 °F /  14 °C 29.62in /  1002.9hPa Calm     96% 0.00in /  0mm WeatherDisplay:10.37 W/m2 -DZ
00:13 58.4 °F /  14.7 °C 57.2 °F /  14 °C 29.62in /  1002.9hPa Calm     96% 0.00in /  0mm WeatherDisplay:10.37 W/m2 -DZ
00:18 58.4 °F /  14.7 °C 57.2 °F /  14 °C 29.62in /  1002.9hPa SSW 1.2mph /  1.9km/h 1.2mph /  1.9km/h 96% 0.00in /  0mm WeatherDisplay:10.37 W/m2 -DZ
00:23 58.3 °F /  14.6 °C 57.1 °F /  13.9 °C 29.62in /  1002.9hPa SSW 1.2mph /  1.9km/h 1.2mph /  1.9km/h 96% 0.00in /  0mm WeatherDisplay:10.37 W/m2 -DZ
00:28 58.2 °F /  14.6 °C 57.0 °F /  13.9 °C 29.62in /  1002.9hPa SSW 1.2mph /  1.9km/h 1.2mph /  1.9km/h 96% 0.00in /  0mm WeatherDisplay:10.37 W/m2 -DZ
00:33 58.1 °F /  14.5 °C 56.9 °F /  13.8 °C 29.62in /  1002.9hPa Calm     96% 0.00in /  0mm WeatherDisplay:10.37 W/m2 OVC
00:38 58.0 °F /  14.4 °C 56.8 °F /  13.8 °C 29.62in /  1002.9hPa Calm     96% 0.00in /  0mm WeatherDisplay:10.37 W/m2 OVC
00:43 57.9 °F /  14.4 °C 56.7 °F /  13.7 °C 29.62in /  1002.9hPa Calm     96% 0.00in /  0mm WeatherDisplay:10.37 W/m2 OVC
00:48 57.9 °F /  14.4 °C 56.7 °F /  13.7 °C 29.62in /  1002.9hPa Calm     96% 0.00in /  0mm WeatherDisplay:10.37 W/m2 OVC
00:53 57.9 °F /  14.4 °C 56.7 °F /  13.7 °C 29.61in /  1002.6hPa SSW 1.2mph /  1.9km/h 1.2mph /  1.9km/h 96% 0.00in /  0mm WeatherDisplay:10.37 W/m2 OVC
00:58 57.8 °F /  14.3 °C 56.6 °F /  13.7 °C 29.62in /  1002.9hPa SSW 1.2mph /  1.9km/h 1.2mph /  1.9km/h 96% 0.00in /  0mm WeatherDisplay:10.37 W/m2 OVC
01:03 57.8 °F /  14.3 °C 56.6 °F /  13.7 °C 29.62in /  1002.9hPa Calm     96% 0.00in /  0mm WeatherDisplay:10.37 W/m2 OVC
01:08 57.7 °F /  14.3 °C 56.5 °F /  13.6 °C 29.61in /  1002.6hPa Calm     96% 0.00in /  0mm WeatherDisplay:10.37 W/m2 OVC
01:13 57.7 °F /  14.3 °C 56.5 °F /  13.6 °C 29.61in /  1002.6hPa Calm     96% 0.00in /  0mm WeatherDisplay:10.37 W/m2 OVC
01:18 57.7 °F /  14.3 °C 56.5 °F /  13.6 °C 29.61in /  1002.6hPa Calm     96% 0.00in /  0mm WeatherDisplay:10.37 W/m2 OVC
01:23 57.7 °F /  14.3 °C 56.5 °F /  13.6 °C 29.61in /  1002.6hPa SSW 1.2mph /  1.9km/h 1.2mph /  1.9km/h 96% 0.00in /  0mm WeatherDisplay:10.37 W/m2 OVC
01:28 57.7 °F /  14.3 °C 56.5 °F /  13.6 °C 29.60in /  1002.3hPa SSW 1.2mph /  1.9km/h 1.2mph /  1.9km/h 96% 0.00in /  0mm WeatherDisplay:10.37 W/m2 OVC
01:33 57.7 °F /  14.3 °C 56.5 °F /  13.6 °C 29.61in /  1002.6hPa SSW 2.3mph /  3.7km/h 2.3mph /  3.7km/h 96% 0.00in /  0mm WeatherDisplay:10.37 W/m2 BKN
01:38 57.7 °F /  14.3 °C 56.5 °F /  13.6 °C 29.60in /  1002.3hPa Calm     96% 0.00in /  0mm WeatherDisplay:10.37 W/m2 BKN
01:43 57.6 °F /  14.2 °C 56.4 °F /  13.6 °C 29.61in /  1002.6hPa SSW 1.2mph /  1.9km/h 1.2mph /  1.9km/h 96% 0.00in /  0mm WeatherDisplay:10.37 W/m2 BKN
01:48 57.6 °F /  14.2 °C 56.4 °F /  13.6 °C 29.61in /  1002.6hPa SSW 1.2mph /  1.9km/h   96% 0.00in /  0mm WeatherDisplay:10.37 W/m2 BKN
01:53 57.6 °F /  14.2 °C 56.4 °F /  13.6 °C 29.61in /  1002.6hPa SSW 1.2mph /  1.9km/h   96% 0.00in /  0mm WeatherDisplay:10.37 W/m2 OVC
01:58 57.5 °F /  14.2 °C 56.3 °F /  13.5 °C 29.62in /  1002.9hPa Calm     96% 0.00in /  0mm WeatherDisplay:10.37 W/m2 OVC
02:03 57.5 °F /  14.2 °C 56.3 °F /  13.5 °C 29.62in /  1002.9hPa Calm     96% 0.00in /  0mm WeatherDisplay:10.37 W/m2 OVC
02:08 57.5 °F /  14.2 °C 56.3 °F /  13.5 °C 29.62in /  1002.9hPa Calm     96% 0.00in /  0mm WeatherDisplay:10.37 W/m2 OVC
02:13 57.5 °F /  14.2 °C 56.3 °F /  13.5 °C 29.62in /  1002.9hPa SSW 1.2mph /  1.9km/h 1.2mph /  1.9km/h 96% 0.00in /  0mm WeatherDisplay:10.37 W/m2 OVC
02:18 57.6 °F /  14.2 °C 56.7 °F /  13.7 °C 29.62in /  1002.9hPa WSW 2.3mph /  3.7km/h 2.3mph /  3.7km/h 97% 0.00in /  0mm WeatherDisplay:10.37 W/m2 OVC
02:23 57.7 °F /  14.3 °C 56.5 °F /  13.6 °C 29.61in /  1002.6hPa SW 3.5mph /  5.6km/h 3.5mph /  5.6km/h 96% 0.00in /  0mm WeatherDisplay:10.37 W/m2 OVC
02:28 57.7 °F /  14.3 °C 56.5 °F /  13.6 °C 29.61in /  1002.6hPa SW 3.5mph /  5.6km/h 3.5mph /  5.6km/h 96% 0.00in /  0mm WeatherDisplay:10.37 W/m2 OVC
02:33 57.8 °F /  14.3 °C 56.6 °F /  13.7 °C 29.60in /  1002.3hPa SW 2.3mph /  3.7km/h 2.3mph /  3.7km/h 96% 0.00in /  0mm WeatherDisplay:10.37 W/m2 OVC
02:34 57.8 °F /  14.3 °C 56.6 °F /  13.7 °C 29.60in /  1002.3hPa SW 1.2mph /  1.9km/h 1.2mph /  1.9km/h 96% 0.00in /  0mm WeatherDisplay:10.37 W/m2 OVC
02:39 57.9 °F /  14.4 °C 56.7 °F /  13.7 °C 29.60in /  1002.3hPa SW 4.6mph /  7.4km/h 4.6mph /  7.4km/h 96% 0.00in /  0mm WeatherDisplay:10.37 W/m2 OVC
02:44 57.8 °F /  14.3 °C 56.3 °F /  13.5 °C 29.61in /  1002.6hPa SSW 3.5mph /  5.6km/h 4.4mph /  7.1km/h 95% 0.00in /  0mm WeatherDisplay:10.37 W/m2 OVC
02:49 57.6 °F /  14.2 °C 55.8 °F /  13.2 °C 29.60in /  1002.3hPa SW 4.6mph /  7.4km/h 4.6mph /  7.4km/h 94% 0.00in /  0mm WeatherDisplay:10.37 W/m2 OVC
02:54 57.5 °F /  14.2 °C 55.5 °F /  13.1 °C 29.61in /  1002.6hPa SW 9.2mph /  14.8km/h 9.2mph /  14.8km/h 93% 0.00in /  0mm WeatherDisplay:10.37 W/m2 OVC
02:59 57.3 °F /  14.1 °C 55.0 °F /  12.8 °C 29.60in /  1002.3hPa SSW 5.0mph /  8km/h 5.0mph /  8km/h 92% 0.00in /  0mm WeatherDisplay:10.37 W/m2 OVC
03:04 57.1 °F /  13.9 °C 54.5 °F /  12.5 °C 29.60in /  1002.3hPa SW 6.9mph /  11.1km/h 6.9mph /  11.1km/h 91% 0.00in /  0mm WeatherDisplay:10.37 W/m2 OVC
03:09 57.0 °F /  13.9 °C 54.7 °F /  12.6 °C 29.60in /  1002.3hPa SW 6.9mph /  11.1km/h 6.9mph /  11.1km/h 92% 0.00in /  0mm WeatherDisplay:10.37 W/m2 OVC
03:14 56.8 °F /  13.8 °C 54.8 °F /  12.7 °C 29.60in /  1002.3hPa SSW 3.5mph /  5.6km/h 3.5mph /  5.6km/h 93% 0.00in /  0mm WeatherDisplay:10.37 W/m2 OVC
03:16 56.8 °F /  13.8 °C 54.8 °F /  12.7 °C 29.60in /  1002.3hPa SW 3.5mph /  5.6km/h 3.5mph /  5.6km/h 93% 0.00in /  0mm WeatherDisplay:10.37 W/m2 OVC
03:21 56.8 °F /  13.8 °C 54.8 °F /  12.7 °C 29.60in /  1002.3hPa SW 3.5mph /  5.6km/h 3.5mph /  5.6km/h 93% 0.00in /  0mm WeatherDisplay:10.37 W/m2 OVC
03:26 56.8 °F /  13.8 °C 55.1 °F /  12.8 °C 29.61in /  1002.6hPa SW 3.5mph /  5.6km/h 3.5mph /  5.6km/h 94% 0.00in /  0mm WeatherDisplay:10.37 W/m2 OVC
03:31 56.6 °F /  13.7 °C 54.6 °F /  12.6 °C 29.61in /  1002.6hPa West 3.5mph /  5.6km/h 3.5mph /  5.6km/h 93% 0.00in /  0mm WeatherDisplay:10.37 W/m2 OVC
03:36 56.5 °F /  13.6 °C 54.5 °F /  12.5 °C 29.61in /  1002.6hPa SSW 4.6mph /  7.4km/h 4.6mph /  7.4km/h 93% 0.00in /  0mm WeatherDisplay:10.37 W/m2 OVC
03:41 56.3 °F /  13.5 °C 54.3 °F /  12.4 °C 29.61in /  1002.6hPa SW 6.9mph /  11.1km/h 6.9mph /  11.1km/h 93% 0.00in /  0mm WeatherDisplay:10.37 W/m2 OVC
03:46 56.2 °F /  13.4 °C 53.9 °F /  12.2 °C 29.61in /  1002.6hPa SW 4.6mph /  7.4km/h 4.6mph /  7.4km/h 92% 0.00in /  0mm WeatherDisplay:10.37 W/m2 OVC
03:51 56.1 °F /  13.4 °C 53.8 °F /  12.1 °C 29.60in /  1002.3hPa SW 4.6mph /  7.4km/h 4.6mph /  7.4km/h 92% 0.00in /  0mm WeatherDisplay:10.37 W/m2 OVC
03:56 55.9 °F /  13.3 °C 53.6 °F /  12 °C 29.60in /  1002.3hPa SW 6.9mph /  11.1km/h 6.9mph /  11.1km/h 92% 0.00in /  0mm WeatherDisplay:10.37 W/m2 OVC
04:01 55.8 °F /  13.2 °C 53.5 °F /  11.9 °C 29.60in /  1002.3hPa SW 7.0mph /  11.3km/h 7.0mph /  11.3km/h 92% 0.00in /  0mm WeatherDisplay:10.37 W/m2 OVC
04:06 55.7 °F /  13.2 °C 53.7 °F /  12.1 °C 29.60in /  1002.3hPa SW 4.0mph /  6.4km/h 4.0mph /  6.4km/h 93% 0.00in /  0mm WeatherDisplay:10.37 W/m2 OVC
04:11 55.5 °F /  13.1 °C 53.2 °F /  11.8 °C 29.60in /  1002.3hPa SW 5.8mph /  9.3km/h 5.8mph /  9.3km/h 92% 0.00in /  0mm WeatherDisplay:10.37 W/m2 OVC
04:16 55.4 °F /  13 °C 53.1 °F /  11.7 °C 29.60in /  1002.3hPa SW 4.0mph /  6.4km/h 4.0mph /  6.4km/h 92% 0.00in /  0mm WeatherDisplay:10.37 W/m2 OVC
04:21 55.3 °F /  12.9 °C 53.0 °F /  11.7 °C 29.60in /  1002.3hPa SW 6.9mph /  11.1km/h 6.9mph /  11.1km/h 92% 0.00in /  0mm WeatherDisplay:10.37 W/m2 OVC
04:26 55.2 °F /  12.9 °C 52.9 °F /  11.6 °C 29.60in /  1002.3hPa SW 3.5mph /  5.6km/h 3.5mph /  5.6km/h 92% 0.00in /  0mm WeatherDisplay:10.37 W/m2 OVC
04:31 55.1 °F /  12.8 °C 52.8 °F /  11.6 °C 29.60in /  1002.3hPa SSW 4.6mph /  7.4km/h 4.6mph /  7.4km/h 92% 0.00in /  0mm WeatherDisplay:10.37 W/m2 OVC
04:36 54.9 °F /  12.7 °C 52.3 °F /  11.3 °C 29.60in /  1002.3hPa SW 3.5mph /  5.6km/h 3.5mph /  5.6km/h 91% 0.00in /  0mm WeatherDisplay:10.37 W/m2 OVC
04:41 54.8 °F /  12.7 °C 52.2 °F /  11.2 °C 29.60in /  1002.3hPa SW 6.9mph /  11.1km/h 6.9mph /  11.1km/h 91% 0.00in /  0mm WeatherDisplay:10.37 W/m2 OVC
04:46 54.8 °F /  12.7 °C 52.2 °F /  11.2 °C 29.61in /  1002.6hPa WSW 6.9mph /  11.1km/h 6.9mph /  11.1km/h 91% 0.00in /  0mm WeatherDisplay:10.37 W/m2 OVC
04:51 54.6 °F /  12.6 °C 52.0 °F /  11.1 °C 29.61in /  1002.6hPa SW 6.9mph /  11.1km/h 6.9mph /  11.1km/h 91% 0.00in /  0mm WeatherDisplay:10.37 W/m2 OVC
04:56 54.5 °F /  12.5 °C 51.9 °F /  11.1 °C 29.61in /  1002.6hPa SSW 7.0mph /  11.3km/h 7.0mph /  11.3km/h 91% 0.00in /  0mm WeatherDisplay:10.37 W/m2 OVC
05:01 54.5 °F /  12.5 °C 51.9 °F /  11.1 °C 29.62in /  1002.9hPa SW 6.9mph /  11.1km/h 6.9mph /  11.1km/h 91% 0.00in /  0mm WeatherDisplay:10.37 W/m2 OVC
05:06 54.4 °F /  12.4 °C 51.8 °F /  11 °C 29.62in /  1002.9hPa SSW 6.9mph /  11.1km/h 6.9mph /  11.1km/h 91% 0.00in /  0mm WeatherDisplay:10.37 W/m2 OVC
05:11 54.3 °F /  12.4 °C 51.7 °F /  10.9 °C 29.62in /  1002.9hPa SW 9.0mph /  14.5km/h 9.0mph /  14.5km/h 91% 0.00in /  0mm WeatherDisplay:10.37 W/m2 OVC
05:16 54.3 °F /  12.4 °C 52.0 °F /  11.1 °C 29.62in /  1002.9hPa SW 5.8mph /  9.3km/h 5.8mph /  9.3km/h 92% 0.00in /  0mm WeatherDisplay:10.37 W/m2 OVC
05:21 54.2 °F /  12.3 °C 51.9 °F /  11.1 °C 29.62in /  1002.9hPa SW 3.5mph /  5.6km/h 3.5mph /  5.6km/h 92% 0.00in /  0mm WeatherDisplay:10.37 W/m2 OVC
05:26 54.2 °F /  12.3 °C 51.6 °F /  10.9 °C 29.62in /  1002.9hPa SSW 4.6mph /  7.4km/h 4.6mph /  7.4km/h 91% 0.00in /  0mm WeatherDisplay:10.37 W/m2 OVC
05:31 54.1 °F /  12.3 °C 51.8 °F /  11 °C 29.63in /  1003.3hPa WSW 3.5mph /  5.6km/h 3.5mph /  5.6km/h 92% 0.00in /  0mm WeatherDisplay:10.37 W/m2 OVC
05:36 54.1 °F /  12.3 °C 51.8 °F /  11 °C 29.63in /  1003.3hPa SSW 2.3mph /  3.7km/h 2.3mph /  3.7km/h 92% 0.00in /  0mm WeatherDisplay:10.37 W/m2 OVC
05:38 54.1 °F /  12.3 °C 51.8 °F /  11 °C 29.63in /  1003.3hPa SW 3.5mph /  5.6km/h 3.5mph /  5.6km/h 92% 0.00in /  0mm WeatherDisplay:10.37 W/m2 OVC
05:43 54.0 °F /  12.2 °C 51.7 °F /  10.9 °C 29.63in /  1003.3hPa SW 2.0mph /  3.2km/h 2.0mph /  3.2km/h 92% 0.00in /  0mm WeatherDisplay:10.37 W/m2 OVC
05:48 54.0 °F /  12.2 °C 51.7 °F /  10.9 °C 29.63in /  1003.3hPa WSW 2.0mph /  3.2km/h 2.0mph /  3.2km/h 92% 0.00in /  0mm WeatherDisplay:10.37 W/m2 OVC
05:53 53.9 °F /  12.2 °C 51.6 °F /  10.9 °C 29.63in /  1003.3hPa SW 3.5mph /  5.6km/h 3.5mph /  5.6km/h 92% 0.00in /  0mm WeatherDisplay:10.37 W/m2 OVC
05:58 53.8 °F /  12.1 °C 51.5 °F /  10.8 °C 29.63in /  1003.3hPa SW 5.8mph /  9.3km/h 5.8mph /  9.3km/h 92% 0.00in /  0mm WeatherDisplay:10.37 W/m2 OVC
06:03 53.8 °F /  12.1 °C 51.5 °F /  10.8 °C 29.64in /  1003.6hPa SW 3.5mph /  5.6km/h 3.5mph /  5.6km/h 92% 0.00in /  0mm WeatherDisplay:10.37 W/m2 OVC
06:08 53.7 °F /  12.1 °C 51.4 °F /  10.8 °C 29.64in /  1003.6hPa SW 4.0mph /  6.4km/h 4.0mph /  6.4km/h 92% 0.00in /  0mm WeatherDisplay:10.37 W/m2 OVC
06:13 53.6 °F /  12 °C 51.0 °F /  10.6 °C 29.64in /  1003.6hPa SW 3.5mph /  5.6km/h 3.5mph /  5.6km/h 91% 0.00in /  0mm WeatherDisplay:10.37 W/m2 OVC
06:18 53.4 °F /  11.9 °C 50.5 °F /  10.3 °C 29.64in /  1003.6hPa SW 6.9mph /  11.1km/h 6.9mph /  11.1km/h 90% 0.00in /  0mm WeatherDisplay:10.37 W/m2 OVC
06:23 53.3 °F /  11.8 °C 50.4 °F /  10.2 °C 29.64in /  1003.6hPa SW 3.5mph /  5.6km/h 3.5mph /  5.6km/h 90% 0.00in /  0mm WeatherDisplay:10.37 W/m2 OVC
06:28 53.2 °F /  11.8 °C 50.6 °F /  10.3 °C 29.64in /  1003.6hPa SSW 3.5mph /  5.6km/h 3.5mph /  5.6km/h 91% 0.00in /  0mm WeatherDisplay:10.37 W/m2 OVC
06:33 53.1 °F /  11.7 °C 50.5 °F /  10.3 °C 29.65in /  1003.9hPa SW 5.8mph /  9.3km/h 5.8mph /  9.3km/h 91% 0.00in /  0mm WeatherDisplay:10.37 W/m2 OVC
06:38 53.0 °F /  11.7 °C 50.4 °F /  10.2 °C 29.65in /  1003.9hPa SSW 4.6mph /  7.4km/h 4.6mph /  7.4km/h 91% 0.00in /  0mm WeatherDisplay:10.37 W/m2 OVC
06:43 53.0 °F /  11.7 °C 50.4 °F /  10.2 °C 29.66in /  1004.3hPa SW 3.5mph /  5.6km/h 3.5mph /  5.6km/h 91% 0.00in /  0mm WeatherDisplay:10.37 W/m2 OVC
06:48 52.9 °F /  11.6 °C 50.3 °F /  10.2 °C 29.66in /  1004.3hPa SW 3.5mph /  5.6km/h 3.5mph /  5.6km/h 91% 0.00in /  0mm WeatherDisplay:10.37 W/m2 OVC
06:53 52.9 °F /  11.6 °C 50.3 °F /  10.2 °C 29.66in /  1004.3hPa SW 5.8mph /  9.3km/h 5.8mph /  9.3km/h 91% 0.00in /  0mm WeatherDisplay:10.37 W/m2 OVC
06:58 52.8 °F /  11.6 °C 50.2 °F /  10.1 °C 29.67in /  1004.6hPa SSW 5.8mph /  9.3km/h 5.8mph /  9.3km/h 91% 0.00in /  0mm WeatherDisplay:10.37 W/m2 OVC
07:03 52.8 °F /  11.6 °C 50.2 °F /  10.1 °C 29.67in /  1004.6hPa SW 3.5mph /  5.6km/h 3.5mph /  5.6km/h 91% 0.00in /  0mm WeatherDisplay:10.37 W/m2 OVC
07:08 52.8 °F /  11.6 °C 50.2 °F /  10.1 °C 29.68in /  1005hPa SW 8.1mph /  13km/h 8.1mph /  13km/h 91% 0.00in /  0mm WeatherDisplay:10.37 W/m2 OVC
07:13 52.8 °F /  11.6 °C 50.5 °F /  10.3 °C 29.68in /  1005hPa SW 4.0mph /  6.4km/h 4.0mph /  6.4km/h 92% 0.00in /  0mm WeatherDisplay:10.37 W/m2 OVC
07:18 52.7 °F /  11.5 °C 50.4 °F /  10.2 °C 29.68in /  1005hPa SW 5.8mph /  9.3km/h 5.8mph /  9.3km/h 92% 0.00in /  0mm WeatherDisplay:10.37 W/m2 OVC
07:23 52.7 °F /  11.5 °C 50.4 °F /  10.2 °C 29.69in /  1005.3hPa WSW 3.5mph /  5.6km/h 3.5mph /  5.6km/h 92% 0.00in /  0mm WeatherDisplay:10.37 W/m2 OVC
07:28 52.7 °F /  11.5 °C 50.4 °F /  10.2 °C 29.69in /  1005.3hPa SW 3.5mph /  5.6km/h 3.5mph /  5.6km/h 92% 0.00in /  0mm WeatherDisplay:10.37 W/m2 OVC
07:33 52.7 °F /  11.5 °C 50.4 °F /  10.2 °C 29.70in /  1005.6hPa SW 5.0mph /  8km/h 5.0mph /  8km/h 92% 0.00in /  0mm WeatherDisplay:10.37 W/m2 OVC
07:38 52.7 °F /  11.5 °C 50.4 °F /  10.2 °C 29.70in /  1005.6hPa SW 5.8mph /  9.3km/h 5.8mph /  9.3km/h 92% 0.00in /  0mm WeatherDisplay:10.37 W/m2 OVC
07:43 52.7 °F /  11.5 °C 50.7 °F /  10.4 °C 29.70in /  1005.6hPa SW 3.5mph /  5.6km/h 3.5mph /  5.6km/h 93% 0.01in /  0.25mm WeatherDisplay:10.37 W/m2 RA
07:48 52.6 °F /  11.4 °C 50.6 °F /  10.3 °C 29.70in /  1005.6hPa SW 5.8mph /  9.3km/h 5.8mph /  9.3km/h 93% 0.01in /  0.25mm WeatherDisplay:10.37 W/m2 RA
07:53 52.5 °F /  11.4 °C 50.5 °F /  10.3 °C 29.70in /  1005.6hPa SW 10.4mph /  16.7km/h 10.4mph /  16.7km/h 93% 0.01in /  0.25mm WeatherDisplay:10.37 W/m2 OVC
07:58 52.5 °F /  11.4 °C 50.5 °F /  10.3 °C 29.70in /  1005.6hPa SSW 6.0mph /  9.7km/h 6.0mph /  9.7km/h 93% 0.01in /  0.25mm WeatherDisplay:10.37 W/m2 OVC
08:03 52.5 °F /  11.4 °C 50.5 °F /  10.3 °C 29.70in /  1005.6hPa South 8.1mph /  13km/h 8.1mph /  13km/h 93% 0.01in /  0.25mm WeatherDisplay:10.37 W/m2 OVC
08:08 52.5 °F /  11.4 °C 50.5 °F /  10.3 °C 29.70in /  1005.6hPa West 5.8mph /  9.3km/h 5.8mph /  9.3km/h 93% 0.01in /  0.25mm WeatherDisplay:10.37 W/m2 OVC
08:13 52.4 °F /  11.3 °C 50.4 °F /  10.2 °C 29.70in /  1005.6hPa SSW 4.0mph /  6.4km/h 4.0mph /  6.4km/h 93% 0.01in /  0.25mm WeatherDisplay:10.37 W/m2 OVC
08:19 52.5 °F /  11.4 °C 50.2 °F /  10.1 °C 29.70in /  1005.6hPa SSW 8.1mph /  13km/h 8.1mph /  13km/h 92% 0.01in /  0.25mm WeatherDisplay:10.37 W/m2 OVC
08:24 52.8 °F /  11.6 °C 50.8 °F /  10.4 °C 29.70in /  1005.6hPa SW 5.8mph /  9.3km/h 5.8mph /  9.3km/h 93% 0.01in /  0.25mm WeatherDisplay:10.37 W/m2 OVC
08:29 53.2 °F /  11.8 °C 50.9 °F /  10.5 °C 29.70in /  1005.6hPa SSW 4.6mph /  7.4km/h 4.6mph /  7.4km/h 92% 0.01in /  0.25mm WeatherDisplay:10.37 W/m2 OVC
08:34 53.5 °F /  11.9 °C 51.2 °F /  10.7 °C 29.70in /  1005.6hPa SW 4.6mph /  7.4km/h 4.6mph /  7.4km/h 92% 0.01in /  0.25mm WeatherDisplay:10.37 W/m2 OVC
08:39 53.7 °F /  12.1 °C 51.1 °F /  10.6 °C 29.70in /  1005.6hPa SW 3.5mph /  5.6km/h 3.5mph /  5.6km/h 91% 0.01in /  0.25mm WeatherDisplay:10.37 W/m2 OVC
08:44 53.9 °F /  12.2 °C 51.3 °F /  10.7 °C 29.70in /  1005.6hPa SW 3.5mph /  5.6km/h 3.5mph /  5.6km/h 91% 0.00in /  0mm WeatherDisplay:10.37 W/m2 OVC
08:49 53.9 °F /  12.2 °C 50.7 °F /  10.4 °C 29.71in /  1006hPa SSW 8.1mph /  13km/h 8.1mph /  13km/h 89% 0.00in /  0mm WeatherDisplay:10.37 W/m2 OVC
08:54 53.9 °F /  12.2 °C 50.7 °F /  10.4 °C 29.71in /  1006hPa SW 4.6mph /  7.4km/h 4.6mph /  7.4km/h 89% 0.00in /  0mm WeatherDisplay:10.37 W/m2 OVC
08:59 53.8 °F /  12.1 °C 50.3 °F /  10.2 °C 29.71in /  1006hPa SSW 5.8mph /  9.3km/h 5.8mph /  9.3km/h 88% 0.00in /  0mm WeatherDisplay:10.37 W/m2 OVC
09:04 53.8 °F /  12.1 °C 50.6 °F /  10.3 °C 29.71in /  1006hPa WSW 4.6mph /  7.4km/h 4.6mph /  7.4km/h 89% 0.00in /  0mm WeatherDisplay:10.37 W/m2 OVC
09:09 53.8 °F /  12.1 °C 50.3 °F /  10.2 °C 29.71in /  1006hPa SW 6.9mph /  11.1km/h 6.9mph /  11.1km/h 88% 0.00in /  0mm WeatherDisplay:10.37 W/m2 OVC
09:14 53.8 °F /  12.1 °C 50.3 °F /  10.2 °C 29.71in /  1006hPa WSW 4.6mph /  7.4km/h 4.6mph /  7.4km/h 88% 0.00in /  0mm WeatherDisplay:10.37 W/m2 OVC
09:19 53.8 °F /  12.1 °C 50.6 °F /  10.3 °C 29.71in /  1006hPa SSW 4.0mph /  6.4km/h 4.0mph /  6.4km/h 89% 0.00in /  0mm WeatherDisplay:10.37 W/m2 OVC
09:24 53.8 °F /  12.1 °C 50.3 °F /  10.2 °C 29.71in /  1006hPa SW 6.9mph /  11.1km/h 6.9mph /  11.1km/h 88% 0.00in /  0mm WeatherDisplay:10.37 W/m2 OVC
09:29 53.9 °F /  12.2 °C 50.7 °F /  10.4 °C 29.71in /  1006hPa SW 4.0mph /  6.4km/h 4.0mph /  6.4km/h 89% 0.00in /  0mm WeatherDisplay:10.37 W/m2 OVC
09:34 53.8 °F /  12.1 °C 50.3 °F /  10.2 °C 29.71in /  1006hPa SSW 3.5mph /  5.6km/h 3.5mph /  5.6km/h 88% 0.00in /  0mm WeatherDisplay:10.37 W/m2 OVC
09:39 53.9 °F /  12.2 °C 50.7 °F /  10.4 °C 29.71in /  1006hPa SW 2.3mph /  3.7km/h 2.3mph /  3.7km/h 89% 0.00in /  0mm WeatherDisplay:10.37 W/m2 OVC
09:44 53.8 °F /  12.1 °C 50.3 °F /  10.2 °C 29.71in /  1006hPa SW 5.8mph /  9.3km/h 5.8mph /  9.3km/h 88% 0.00in /  0mm WeatherDisplay:10.37 W/m2 OVC
09:49 53.9 °F /  12.2 °C 50.7 °F /  10.4 °C 29.71in /  1006hPa West 4.6mph /  7.4km/h 4.6mph /  7.4km/h 89% 0.00in /  0mm WeatherDisplay:10.37 W/m2 OVC
09:54 54.0 °F /  12.2 °C 50.8 °F /  10.4 °C 29.71in /  1006hPa SW 2.3mph /  3.7km/h 2.3mph /  3.7km/h 89% 0.00in /  0mm WeatherDisplay:10.37 W/m2 OVC
09:59 54.1 °F /  12.3 °C 50.9 °F /  10.5 °C 29.71in /  1006hPa SW 3.5mph /  5.6km/h 3.5mph /  5.6km/h 89% 0.00in /  0mm WeatherDisplay:10.37 W/m2 OVC
10:04 54.1 °F /  12.3 °C 50.9 °F /  10.5 °C 29.71in /  1006hPa SSW 3.5mph /  5.6km/h 3.5mph /  5.6km/h 89% 0.00in /  0mm WeatherDisplay:10.37 W/m2 OVC
10:09 54.1 °F /  12.3 °C 50.9 °F /  10.5 °C 29.71in /  1006hPa SW 3.5mph /  5.6km/h 3.5mph /  5.6km/h 89% 0.00in /  0mm WeatherDisplay:10.37 W/m2 OVC
10:14 54.1 °F /  12.3 °C 50.6 °F /  10.3 °C 29.71in /  1006hPa SW 3.5mph /  5.6km/h 3.5mph /  5.6km/h 88% 0.00in /  0mm WeatherDisplay:10.37 W/m2 OVC
10:19 54.2 °F /  12.3 °C 50.7 °F /  10.4 °C 29.71in /  1006hPa SW 5.0mph /  8km/h 5.0mph /  8km/h 88% 0.00in /  0mm WeatherDisplay:10.37 W/m2 OVC
10:24 54.4 °F /  12.4 °C 51.2 °F /  10.7 °C 29.71in /  1006hPa SSE 4.6mph /  7.4km/h 4.6mph /  7.4km/h 89% 0.00in /  0mm WeatherDisplay:10.37 W/m2 OVC
10:29 54.8 °F /  12.7 °C 51.3 °F /  10.7 °C 29.71in /  1006hPa SW 5.0mph /  8km/h 5.0mph /  8km/h 88% 0.00in /  0mm WeatherDisplay:10.37 W/m2 OVC
10:30 54.9 °F /  12.7 °C 51.4 °F /  10.8 °C 29.71in /  1006hPa SW 5.8mph /  9.3km/h 5.8mph /  9.3km/h 88% 0.00in /  0mm WeatherDisplay:10.37 W/m2 OVC
10:35 55.1 °F /  12.8 °C 51.3 °F /  10.7 °C 29.71in /  1006hPa SSW 3.5mph /  5.6km/h 3.5mph /  5.6km/h 87% 0.00in /  0mm WeatherDisplay:10.37 W/m2 OVC
10:40 55.2 °F /  12.9 °C 51.0 °F /  10.6 °C 29.71in /  1006hPa West 6.9mph /  11.1km/h 6.9mph /  11.1km/h 86% 0.00in /  0mm WeatherDisplay:10.37 W/m2 OVC
10:45 55.2 °F /  12.9 °C 51.0 °F /  10.6 °C 29.71in /  1006hPa SW 6.9mph /  11.1km/h 6.9mph /  11.1km/h 86% 0.00in /  0mm WeatherDisplay:10.37 W/m2 OVC
10:50 55.3 °F /  12.9 °C 51.5 °F /  10.8 °C 29.71in /  1006hPa SW 5.0mph /  8km/h 5.0mph /  8km/h 87% 0.00in /  0mm WeatherDisplay:10.37 W/m2 OVC
10:55 55.5 °F /  13.1 °C 51.3 °F /  10.7 °C 29.71in /  1006hPa WSW 9.2mph /  14.8km/h 9.2mph /  14.8km/h 86% 0.00in /  0mm WeatherDisplay:10.37 W/m2 OVC
11:00 55.6 °F /  13.1 °C 51.4 °F /  10.8 °C 29.71in /  1006hPa SW 5.8mph /  9.3km/h 5.8mph /  9.3km/h 86% 0.00in /  0mm WeatherDisplay:10.37 W/m2 OVC
11:05 56.0 °F /  13.3 °C 51.8 °F /  11 °C 29.71in /  1006hPa West 4.0mph /  6.4km/h 4.0mph /  6.4km/h 86% 0.00in /  0mm WeatherDisplay:10.37 W/m2 OVC
11:10 56.2 °F /  13.4 °C 52.0 °F /  11.1 °C 29.71in /  1006hPa WSW 8.1mph /  13km/h 8.1mph /  13km/h 86% 0.00in /  0mm WeatherDisplay:10.37 W/m2 OVC
11:15 56.5 °F /  13.6 °C 52.3 °F /  11.3 °C 29.71in /  1006hPa SSW 6.0mph /  9.7km/h 6.0mph /  9.7km/h 86% 0.00in /  0mm WeatherDisplay:10.37 W/m2 OVC
11:20 56.8 °F /  13.8 °C 52.0 °F /  11.1 °C 29.71in /  1006hPa SW 8.1mph /  13km/h 8.1mph /  13km/h 84% 0.00in /  0mm WeatherDisplay:10.37 W/m2 OVC
11:25 57.3 °F /  14.1 °C 52.5 °F /  11.4 °C 29.71in /  1006hPa SW 3.5mph /  5.6km/h 3.5mph /  5.6km/h 84% 0.00in /  0mm WeatherDisplay:10.37 W/m2 OVC
11:30 57.6 °F /  14.2 °C 53.1 °F /  11.7 °C 29.71in /  1006hPa SW 3.5mph /  5.6km/h 3.5mph /  5.6km/h 85% 0.00in /  0mm WeatherDisplay:10.37 W/m2 OVC
11:35 57.4 °F /  14.1 °C 51.9 °F /  11.1 °C 29.71in /  1006hPa WSW 11.5mph /  18.5km/h 11.5mph /  18.5km/h 82% 0.00in /  0mm WeatherDisplay:10.37 W/m2 OVC
11:40 57.0 °F /  13.9 °C 51.8 °F /  11 °C 29.71in /  1006hPa SW 5.8mph /  9.3km/h 5.8mph /  9.3km/h 83% 0.00in /  0mm WeatherDisplay:10.37 W/m2 OVC
11:45 56.6 °F /  13.7 °C 52.1 °F /  11.2 °C 29.71in /  1006hPa SW 5.8mph /  9.3km/h 5.8mph /  9.3km/h 85% 0.00in /  0mm WeatherDisplay:10.37 W/m2 OVC
11:50 56.8 °F /  13.8 °C 52.3 °F /  11.3 °C 29.71in /  1006hPa SSW 6.9mph /  11.1km/h 6.9mph /  11.1km/h 85% 0.00in /  0mm WeatherDisplay:10.37 W/m2 OVC
11:55 57.3 °F /  14.1 °C 52.5 °F /  11.4 °C 29.71in /  1006hPa WSW 8.1mph /  13km/h 8.1mph /  13km/h 84% 0.00in /  0mm WeatherDisplay:10.37 W/m2 OVC
12:00 57.1 °F /  13.9 °C 51.9 °F /  11.1 °C 29.71in /  1006hPa WSW 11.5mph /  18.5km/h 11.5mph /  18.5km/h 83% 0.00in /  0mm WeatherDisplay:10.37 W/m2 OVC
12:05 57.0 °F /  13.9 °C 52.5 °F /  11.4 °C 29.71in /  1006hPa WNW 5.8mph /  9.3km/h 5.8mph /  9.3km/h 85% 0.00in /  0mm WeatherDisplay:10.37 W/m2 OVC
12:10 57.0 °F /  13.9 °C 52.5 °F /  11.4 °C 29.71in /  1006hPa South 10.4mph /  16.7km/h 10.4mph /  16.7km/h 85% 0.00in /  0mm WeatherDisplay:10.37 W/m2 OVC
12:15 57.0 °F /  13.9 °C 52.5 °F /  11.4 °C 29.71in /  1006hPa West 9.2mph /  14.8km/h 9.2mph /  14.8km/h 85% 0.00in /  0mm WeatherDisplay:10.37 W/m2 OVC
12:20 56.9 °F /  13.8 °C 52.7 °F /  11.5 °C 29.71in /  1006hPa SSW 6.9mph /  11.1km/h 6.9mph /  11.1km/h 86% 0.00in /  0mm WeatherDisplay:10.37 W/m2 OVC
12:25 56.9 °F /  13.8 °C 52.4 °F /  11.3 °C 29.71in /  1006hPa West 10.4mph /  16.7km/h 10.4mph /  16.7km/h 85% 0.00in /  0mm WeatherDisplay:10.37 W/m2 OVC
12:30 56.7 °F /  13.7 °C 51.9 °F /  11.1 °C 29.71in /  1006hPa SW 15.0mph /  24.1km/h 15.0mph /  24.1km/h 84% 0.00in /  0mm WeatherDisplay:10.37 W/m2 OVC
12:35 56.7 °F /  13.7 °C 51.9 °F /  11.1 °C 29.71in /  1006hPa WNW 9.2mph /  14.8km/h 9.2mph /  14.8km/h 84% 0.00in /  0mm WeatherDisplay:10.37 W/m2 OVC
12:40 56.7 °F /  13.7 °C 52.2 °F /  11.2 °C 29.71in /  1006hPa SW 11.5mph /  18.5km/h 11.5mph /  18.5km/h 85% 0.00in /  0mm WeatherDisplay:10.37 W/m2 OVC
12:45 56.7 °F /  13.7 °C 52.2 °F /  11.2 °C 29.71in /  1006hPa WSW 10.4mph /  16.7km/h 10.4mph /  16.7km/h 85% 0.00in /  0mm WeatherDisplay:10.37 W/m2 OVC
12:50 56.7 °F /  13.7 °C 52.5 °F /  11.4 °C 29.71in /  1006hPa SW 11.5mph /  18.5km/h 11.5mph /  18.5km/h 86% 0.00in /  0mm WeatherDisplay:10.37 W/m2 OVC
12:55 56.7 °F /  13.7 °C 52.5 °F /  11.4 °C 29.71in /  1006hPa WNW 12.7mph /  20.4km/h 12.7mph /  20.4km/h 86% 0.00in /  0mm WeatherDisplay:10.37 W/m2 OVC
13:00 56.4 °F /  13.6 °C 52.5 °F /  11.4 °C 29.71in /  1006hPa WSW 6.9mph /  11.1km/h 6.9mph /  11.1km/h 87% 0.00in /  0mm WeatherDisplay:10.37 W/m2 OVC
13:05 55.9 °F /  13.3 °C 52.4 °F /  11.3 °C 29.71in /  1006hPa SSW 9.2mph /  14.8km/h 9.2mph /  14.8km/h 88% 0.00in /  0mm WeatherDisplay:10.37 W/m2 OVC
13:10 55.6 °F /  13.1 °C 52.1 °F /  11.2 °C 29.72in /  1006.3hPa SSW 9.2mph /  14.8km/h 9.2mph /  14.8km/h 88% 0.00in /  0mm WeatherDisplay:10.37 W/m2 OVC
13:15 55.4 °F /  13 °C 52.2 °F /  11.2 °C 29.72in /  1006.3hPa South 9.2mph /  14.8km/h 9.2mph /  14.8km/h 89% 0.00in /  0mm WeatherDisplay:10.37 W/m2 OVC
13:20 55.3 °F /  12.9 °C 52.4 °F /  11.3 °C 29.72in /  1006.3hPa SSW 9.2mph /  14.8km/h 9.2mph /  14.8km/h 90% 0.00in /  0mm WeatherDisplay:10.37 W/m2 OVC
13:26 55.0 °F /  12.8 °C 52.4 °F /  11.3 °C 29.72in /  1006.3hPa SW 8.1mph /  13km/h 8.1mph /  13km/h 91% 0.00in /  0mm WeatherDisplay:10.37 W/m2 OVC
13:31 54.8 °F /  12.7 °C 52.2 °F /  11.2 °C 29.72in /  1006.3hPa SW 11.5mph /  18.5km/h 11.5mph /  18.5km/h 91% 0.00in /  0mm WeatherDisplay:10.37 W/m2 OVC
13:36 54.7 °F /  12.6 °C 52.4 °F /  11.3 °C 29.72in /  1006.3hPa WSW 4.6mph /  7.4km/h 4.6mph /  7.4km/h 92% 0.00in /  0mm WeatherDisplay:10.37 W/m2 OVC
13:41 54.6 °F /  12.6 °C 52.3 °F /  11.3 °C 29.72in /  1006.3hPa SW 8.1mph /  13km/h 8.1mph /  13km/h 92% 0.00in /  0mm WeatherDisplay:10.37 W/m2 OVC
13:46 54.6 °F /  12.6 °C 52.6 °F /  11.4 °C 29.72in /  1006.3hPa SW 6.9mph /  11.1km/h 6.9mph /  11.1km/h 93% 0.01in /  0.25mm WeatherDisplay:10.37 W/m2 RA
13:51 54.4 °F /  12.4 °C 52.4 °F /  11.3 °C 29.72in /  1006.3hPa South 10.0mph /  16.1km/h 10.0mph /  16.1km/h 93% 0.01in /  0.25mm WeatherDisplay:10.37 W/m2 RA
13:56 54.3 °F /  12.4 °C 52.3 °F /  11.3 °C 29.72in /  1006.3hPa SSW 11.5mph /  18.5km/h 11.5mph /  18.5km/h 93% 0.01in /  0.25mm WeatherDisplay:10.37 W/m2 OVC
14:01 54.2 °F /  12.3 °C 52.2 °F /  11.2 °C 29.72in /  1006.3hPa SW 16.1mph /  25.9km/h 16.1mph /  25.9km/h 93% 0.01in /  0.25mm WeatherDisplay:10.37 W/m2 OVC
14:06 54.1 °F /  12.3 °C 52.1 °F /  11.2 °C 29.72in /  1006.3hPa SSW 8.1mph /  13km/h 8.1mph /  13km/h 93% 0.01in /  0.25mm WeatherDisplay:10.37 W/m2 OVC
14:11 54.1 °F /  12.3 °C 52.1 °F /  11.2 °C 29.72in /  1006.3hPa West 8.1mph /  13km/h 8.1mph /  13km/h 93% 0.01in /  0.25mm WeatherDisplay:10.37 W/m2 OVC
14:16 54.3 °F /  12.4 °C 52.6 °F /  11.4 °C 29.72in /  1006.3hPa South 3.5mph /  5.6km/h 3.5mph /  5.6km/h 94% 0.01in /  0.25mm WeatherDisplay:10.37 W/m2 OVC
14:21 54.3 °F /  12.4 °C 52.6 °F /  11.4 °C 29.72in /  1006.3hPa SSW 6.9mph /  11.1km/h 6.9mph /  11.1km/h 94% 0.02in /  0.51mm WeatherDisplay:10.37 W/m2 RA
14:26 54.3 °F /  12.4 °C 52.6 °F /  11.4 °C 29.73in /  1006.7hPa SW 6.0mph /  9.7km/h 6.0mph /  9.7km/h 94% 0.03in /  0.76mm WeatherDisplay:10.37 W/m2 RA
14:31 54.3 °F /  12.4 °C 52.6 °F /  11.4 °C 29.73in /  1006.7hPa SW 5.8mph /  9.3km/h 5.8mph /  9.3km/h 94% 0.03in /  0.76mm WeatherDisplay:10.37 W/m2 RA
14:36 54.4 °F /  12.4 °C 53.0 °F /  11.7 °C 29.72in /  1006.3hPa SSW 6.0mph /  9.7km/h 6.0mph /  9.7km/h 95% 0.04in /  1.02mm WeatherDisplay:10.37 W/m2 +RA
14:41 54.3 °F /  12.4 °C 52.6 °F /  11.4 °C 29.73in /  1006.7hPa SSE 7.0mph /  11.3km/h 7.0mph /  11.3km/h 94% 0.05in /  1.27mm WeatherDisplay:10.37 W/m2 +RA
14:46 54.3 °F /  12.4 °C 52.6 °F /  11.4 °C 29.73in /  1006.7hPa SW 10.4mph /  16.7km/h 10.4mph /  16.7km/h 94% 0.04in /  1.02mm WeatherDisplay:10.37 W/m2 +RA
14:51 54.2 °F /  12.3 °C 52.5 °F /  11.4 °C 29.73in /  1006.7hPa SSW 4.6mph /  7.4km/h 4.6mph /  7.4km/h 94% 0.05in /  1.27mm WeatherDisplay:10.37 W/m2 +RA
14:56 54.1 °F /  12.3 °C 52.4 °F /  11.3 °C 29.73in /  1006.7hPa SW 9.2mph /  14.8km/h 9.2mph /  14.8km/h 94% 0.06in /  1.52mm WeatherDisplay:10.37 W/m2 RA
15:01 54.2 °F /  12.3 °C 52.5 °F /  11.4 °C 29.73in /  1006.7hPa SW 11.5mph /  18.5km/h 11.5mph /  18.5km/h 94% 0.07in /  1.78mm WeatherDisplay:10.37 W/m2 RA
15:06 54.2 °F /  12.3 °C 52.8 °F /  11.6 °C 29.73in /  1006.7hPa SW 6.9mph /  11.1km/h 6.9mph /  11.1km/h 95% 0.08in /  2.03mm WeatherDisplay:10.37 W/m2 -RA
15:11 54.2 °F /  12.3 °C 52.8 °F /  11.6 °C 29.73in /  1006.7hPa SW 8.1mph /  13km/h 8.1mph /  13km/h 95% 0.09in /  2.29mm WeatherDisplay:10.37 W/m2 -RA
15:16 54.2 °F /  12.3 °C 52.8 °F /  11.6 °C 29.73in /  1006.7hPa SSW 3.5mph /  5.6km/h 3.5mph /  5.6km/h 95% 0.10in /  2.54mm WeatherDisplay:10.37 W/m2 -RA
15:21 54.2 °F /  12.3 °C 52.8 °F /  11.6 °C 29.73in /  1006.7hPa SSW 10.4mph /  16.7km/h 10.4mph /  16.7km/h 95% 0.10in /  2.54mm WeatherDisplay:10.37 W/m2 -RA
15:26 54.2 °F /  12.3 °C 52.8 °F /  11.6 °C 29.73in /  1006.7hPa SW 4.6mph /  7.4km/h 4.6mph /  7.4km/h 95% 0.10in /  2.54mm WeatherDisplay:10.37 W/m2 -RA
15:31 54.2 °F /  12.3 °C 52.8 °F /  11.6 °C 29.73in /  1006.7hPa SW 4.6mph /  7.4km/h 4.6mph /  7.4km/h 95% 0.11in /  2.79mm WeatherDisplay:10.37 W/m2 -RA
15:36 54.2 °F /  12.3 °C 52.8 °F /  11.6 °C 29.73in /  1006.7hPa South 4.6mph /  7.4km/h 4.6mph /  7.4km/h 95% 0.11in /  2.79mm WeatherDisplay:10.37 W/m2 RA
15:41 54.2 °F /  12.3 °C 52.8 °F /  11.6 °C 29.73in /  1006.7hPa SW 4.6mph /  7.4km/h 4.6mph /  7.4km/h 95% 0.11in /  2.79mm WeatherDisplay:10.37 W/m2 RA
15:46 54.2 °F /  12.3 °C 52.8 °F /  11.6 °C 29.73in /  1006.7hPa SW 4.6mph /  7.4km/h 4.6mph /  7.4km/h 95% 0.12in /  3.05mm WeatherDisplay:10.37 W/m2 RA
15:51 54.2 °F /  12.3 °C 52.8 °F /  11.6 °C 29.73in /  1006.7hPa SSW 5.8mph /  9.3km/h 5.8mph /  9.3km/h 95% 0.11in /  2.79mm WeatherDisplay:10.37 W/m2 RA
15:56 54.2 °F /  12.3 °C 53.0 °F /  11.7 °C 29.72in /  1006.3hPa SSW 7.0mph /  11.3km/h 7.0mph /  11.3km/h 96% 0.11in /  2.79mm WeatherDisplay:10.37 W/m2 -RA
16:01 54.3 °F /  12.4 °C 52.9 °F /  11.6 °C 29.72in /  1006.3hPa SSW 7.0mph /  11.3km/h 7.0mph /  11.3km/h 95% 0.11in /  2.79mm WeatherDisplay:10.37 W/m2 -RA
16:06 54.3 °F /  12.4 °C 52.9 °F /  11.6 °C 29.72in /  1006.3hPa SSW 5.0mph /  8km/h 5.0mph /  8km/h 95% 0.11in /  2.79mm WeatherDisplay:10.37 W/m2 RA
16:11 54.4 °F /  12.4 °C 53.0 °F /  11.7 °C 29.72in /  1006.3hPa SW 7.0mph /  11.3km/h 7.0mph /  11.3km/h 95% 0.10in /  2.54mm WeatherDisplay:10.37 W/m2 RA
16:16 54.5 °F /  12.5 °C 53.1 °F /  11.7 °C 29.72in /  1006.3hPa South 6.9mph /  11.1km/h 6.9mph /  11.1km/h 95% 0.09in /  2.29mm WeatherDisplay:10.37 W/m2 OVC
16:21 54.5 °F /  12.5 °C 53.1 °F /  11.7 °C 29.72in /  1006.3hPa SW 9.2mph /  14.8km/h 9.2mph /  14.8km/h 95% 0.09in /  2.29mm WeatherDisplay:10.37 W/m2 RA
16:26 54.5 °F /  12.5 °C 53.1 °F /  11.7 °C 29.72in /  1006.3hPa SSW 6.9mph /  11.1km/h 6.9mph /  11.1km/h 95% 0.08in /  2.03mm WeatherDisplay:10.37 W/m2 -RA
16:31 54.5 °F /  12.5 °C 53.1 °F /  11.7 °C 29.72in /  1006.3hPa SSW 9.2mph /  14.8km/h 9.2mph /  14.8km/h 95% 0.07in /  1.78mm WeatherDisplay:10.37 W/m2 -RA
16:36 54.5 °F /  12.5 °C 53.1 °F /  11.7 °C 29.73in /  1006.7hPa SW 6.9mph /  11.1km/h 6.9mph /  11.1km/h 95% 0.06in /  1.52mm WeatherDisplay:10.37 W/m2 -RA
16:41 54.5 °F /  12.5 °C 53.1 °F /  11.7 °C 29.73in /  1006.7hPa WSW 11.5mph /  18.5km/h 11.5mph /  18.5km/h 95% 0.06in /  1.52mm WeatherDisplay:10.37 W/m2 -RA
16:46 54.6 °F /  12.6 °C 53.2 °F /  11.8 °C 29.73in /  1006.7hPa SE 5.0mph /  8km/h 5.0mph /  8km/h 95% 0.05in /  1.27mm WeatherDisplay:10.37 W/m2 -RA
16:51 54.6 °F /  12.6 °C 53.2 °F /  11.8 °C 29.73in /  1006.7hPa SW 10.4mph /  16.7km/h 10.4mph /  16.7km/h 95% 0.05in /  1.27mm WeatherDisplay:10.37 W/m2 -RA
16:56 54.6 °F /  12.6 °C 53.2 °F /  11.8 °C 29.73in /  1006.7hPa SW 8.1mph /  13km/h 8.1mph /  13km/h 95% 0.04in /  1.02mm WeatherDisplay:10.37 W/m2 -RA
17:01 54.6 °F /  12.6 °C 53.2 °F /  11.8 °C 29.73in /  1006.7hPa South 4.6mph /  7.4km/h 4.6mph /  7.4km/h 95% 0.04in /  1.02mm WeatherDisplay:10.37 W/m2 -RA
17:06 54.5 °F /  12.5 °C 53.1 °F /  11.7 °C 29.73in /  1006.7hPa SW 12.7mph /  20.4km/h 12.7mph /  20.4km/h 95% 0.04in /  1.02mm WeatherDisplay:10.37 W/m2 -RA
17:11 54.6 °F /  12.6 °C 53.2 °F /  11.8 °C 29.73in /  1006.7hPa SSW 3.5mph /  5.6km/h 3.5mph /  5.6km/h 95% 0.05in /  1.27mm WeatherDisplay:10.37 W/m2 -RA
17:16 54.6 °F /  12.6 °C 53.2 °F /  11.8 °C 29.74in /  1007hPa SW 10.4mph /  16.7km/h 10.4mph /  16.7km/h 95% 0.05in /  1.27mm WeatherDisplay:10.37 W/m2 +RA
17:21 54.6 °F /  12.6 °C 53.2 °F /  11.8 °C 29.74in /  1007hPa South 5.8mph /  9.3km/h 5.8mph /  9.3km/h 95% 0.05in /  1.27mm WeatherDisplay:10.37 W/m2 +RA
17:26 54.5 °F /  12.5 °C 53.1 °F /  11.7 °C 29.74in /  1007hPa WSW 11.5mph /  18.5km/h 11.5mph /  18.5km/h 95% 0.05in /  1.27mm WeatherDisplay:10.37 W/m2 RA
17:31 54.6 °F /  12.6 °C 53.2 °F /  11.8 °C 29.74in /  1007hPa South 6.9mph /  11.1km/h 6.9mph /  11.1km/h 95% 0.05in /  1.27mm WeatherDisplay:10.37 W/m2 OVC
17:36 54.6 °F /  12.6 °C 53.2 °F /  11.8 °C 29.74in /  1007hPa SW 9.2mph /  14.8km/h 9.2mph /  14.8km/h 95% 0.05in /  1.27mm WeatherDisplay:10.37 W/m2 OVC
17:41 54.6 °F /  12.6 °C 53.2 °F /  11.8 °C 29.75in /  1007.3hPa WSW 10.4mph /  16.7km/h 10.4mph /  16.7km/h 95% 0.05in /  1.27mm WeatherDisplay:10.37 W/m2 RA
17:46 54.7 °F /  12.6 °C 53.3 °F /  11.8 °C 29.75in /  1007.3hPa SSW 10.4mph /  16.7km/h 10.4mph /  16.7km/h 95% 0.05in /  1.27mm WeatherDisplay:10.37 W/m2 RA
17:51 54.7 °F /  12.6 °C 53.3 °F /  11.8 °C 29.75in /  1007.3hPa WSW 6.9mph /  11.1km/h 6.9mph /  11.1km/h 95% 0.05in /  1.27mm WeatherDisplay:10.37 W/m2 OVC
17:56 54.8 °F /  12.7 °C 53.4 °F /  11.9 °C 29.75in /  1007.3hPa WSW 6.9mph /  11.1km/h 6.9mph /  11.1km/h 95% 0.05in /  1.27mm WeatherDisplay:10.37 W/m2 -RA
18:01 54.8 °F /  12.7 °C 53.4 °F /  11.9 °C 29.76in /  1007.7hPa West 6.9mph /  11.1km/h 6.9mph /  11.1km/h 95% 0.04in /  1.02mm WeatherDisplay:10.37 W/m2 -RA
18:06 54.8 °F /  12.7 °C 53.4 °F /  11.9 °C 29.76in /  1007.7hPa SSW 11.5mph /  18.5km/h 11.5mph /  18.5km/h 95% 0.03in /  0.76mm WeatherDisplay:10.37 W/m2 -RA
18:11 54.8 °F /  12.7 °C 53.4 °F /  11.9 °C 29.76in /  1007.7hPa South 15.0mph /  24.1km/h 15.0mph /  24.1km/h 95% 0.03in /  0.76mm WeatherDisplay:10.37 W/m2 -RA
18:16 54.8 °F /  12.7 °C 53.4 °F /  11.9 °C 29.76in /  1007.7hPa SW 8.1mph /  13km/h 8.1mph /  13km/h 95% 0.03in /  0.76mm WeatherDisplay:10.37 W/m2 RA
18:21 54.8 °F /  12.7 °C 53.4 °F /  11.9 °C 29.77in /  1008hPa SW 7.0mph /  11.3km/h 7.0mph /  11.3km/h 95% 0.03in /  0.76mm WeatherDisplay:10.37 W/m2 RA
18:26 54.9 °F /  12.7 °C 53.5 °F /  11.9 °C 29.77in /  1008hPa SW 6.9mph /  11.1km/h 6.9mph /  11.1km/h 95% 0.03in /  0.76mm WeatherDisplay:10.37 W/m2 +DZ
18:31 54.9 °F /  12.7 °C 53.5 °F /  11.9 °C 29.77in /  1008hPa SW 16.1mph /  25.9km/h 16.1mph /  25.9km/h 95% 0.03in /  0.76mm WeatherDisplay:10.37 W/m2 +DZ
18:36 54.9 °F /  12.7 °C 53.5 °F /  11.9 °C 29.77in /  1008hPa SW 13.8mph /  22.2km/h 13.8mph /  22.2km/h 95% 0.03in /  0.76mm WeatherDisplay:10.37 W/m2 +DZ
18:41 54.9 °F /  12.7 °C 53.5 °F /  11.9 °C 29.77in /  1008hPa SW 11.5mph /  18.5km/h 11.5mph /  18.5km/h 95% 0.03in /  0.76mm WeatherDisplay:10.37 W/m2 +DZ
18:46 54.9 °F /  12.7 °C 53.7 °F /  12.1 °C 29.77in /  1008hPa SSW 8.1mph /  13km/h 8.1mph /  13km/h 96% 0.03in /  0.76mm WeatherDisplay:10.37 W/m2 +DZ
18:51 54.9 °F /  12.7 °C 53.7 °F /  12.1 °C 29.77in /  1008hPa SW 13.8mph /  22.2km/h 13.8mph /  22.2km/h 96% 0.04in /  1.02mm WeatherDisplay:10.37 W/m2 +DZ
18:56 54.9 °F /  12.7 °C 53.7 °F /  12.1 °C 29.78in /  1008.4hPa WSW 12.7mph /  20.4km/h 12.7mph /  20.4km/h 96% 0.05in /  1.27mm WeatherDisplay:10.37 W/m2 -DZ
19:01 54.9 °F /  12.7 °C 53.7 °F /  12.1 °C 29.77in /  1008hPa SW 9.2mph /  14.8km/h 9.2mph /  14.8km/h 96% 0.05in /  1.27mm WeatherDisplay:10.37 W/m2 -DZ
19:06 54.9 °F /  12.7 °C 53.7 °F /  12.1 °C 29.78in /  1008.4hPa SSW 8.0mph /  12.9km/h 8.0mph /  12.9km/h 96% 0.06in /  1.52mm WeatherDisplay:10.37 W/m2 -DZ
19:11 54.9 °F /  12.7 °C 53.7 °F /  12.1 °C 29.78in /  1008.4hPa SSW 11.5mph /  18.5km/h 11.5mph /  18.5km/h 96% 0.05in /  1.27mm WeatherDisplay:10.37 W/m2 -DZ
19:16 55.0 °F /  12.8 °C 53.8 °F /  12.1 °C 29.78in /  1008.4hPa West 10.4mph /  16.7km/h 10.4mph /  16.7km/h 96% 0.05in /  1.27mm WeatherDisplay:10.37 W/m2 -DZ
19:21 55.0 °F /  12.8 °C 53.8 °F /  12.1 °C 29.79in /  1008.7hPa WSW 11.5mph /  18.5km/h 11.5mph /  18.5km/h 96% 0.04in /  1.02mm WeatherDisplay:10.37 W/m2 -DZ
19:26 55.0 °F /  12.8 °C 53.8 °F /  12.1 °C 29.79in /  1008.7hPa SSW 5.8mph /  9.3km/h 5.8mph /  9.3km/h 96% 0.04in /  1.02mm WeatherDisplay:10.37 W/m2 -DZ
19:31 55.0 °F /  12.8 °C 53.8 °F /  12.1 °C 29.79in /  1008.7hPa SSW 11.5mph /  18.5km/h 11.5mph /  18.5km/h 96% 0.04in /  1.02mm WeatherDisplay:10.37 W/m2 -DZ
19:36 55.0 °F /  12.8 °C 53.8 °F /  12.1 °C 29.80in /  1009hPa SW 10.4mph /  16.7km/h 10.4mph /  16.7km/h 96% 0.05in /  1.27mm WeatherDisplay:10.37 W/m2 -DZ
19:41 55.1 °F /  12.8 °C 53.9 °F /  12.2 °C 29.80in /  1009hPa SSW 6.9mph /  11.1km/h 6.9mph /  11.1km/h 96% 0.04in /  1.02mm WeatherDisplay:10.37 W/m2 -DZ
19:46 55.1 °F /  12.8 °C 53.9 °F /  12.2 °C 29.80in /  1009hPa SSW 11.5mph /  18.5km/h 11.5mph /  18.5km/h 96% 0.04in /  1.02mm WeatherDisplay:10.37 W/m2 OVC
19:51 55.2 °F /  12.9 °C 54.0 °F /  12.2 °C 29.80in /  1009hPa WSW 8.1mph /  13km/h 8.1mph /  13km/h 96% 0.03in /  0.76mm WeatherDisplay:10.37 W/m2 OVC
19:56 55.2 °F /  12.9 °C 54.0 °F /  12.2 °C 29.81in /  1009.4hPa SW 9.2mph /  14.8km/h 9.2mph /  14.8km/h 96% 0.02in /  0.51mm WeatherDisplay:10.37 W/m2 OVC
Smyth Weather
Compliments of Weather Underground - 2.75 mb